AAL1122 KORD-KJFK
Flight info
| Callsign | AAL1122 |
|---|---|
| Flight time | N/A |
| Altitude | 39000 |
| Route | DUFEE LOGGR HAAKK DOXXY SOSIC JHW Q476 WLKES PUCKY1 |
| Aircraft | A319/L-SDE3FGHIRWY/LB1 |
Departure
| Time | 2026-05-04 17:25 |
|---|---|
| Airport | Chicago O'Hare International Airport (KORD) |
Arrival
| Time | N/A |
|---|---|
| Airport | John F. Kennedy International Airport (KJFK) |
| Time | Latitude | Longitude | Altitude | Speed | Heading |
|---|---|---|---|---|---|
| 2026-05-04 17:02 | 41.97447 | -87.90089 | 669 ft | 0 kts | 90° |
| 2026-05-04 17:14 | 41.97446 | -87.90117 | 669 ft | 4 kts | 79° |
| 2026-05-04 17:15 | 41.97437 | -87.90149 | 669 ft | 4 kts | 42° |
| 2026-05-04 17:15 | 41.97418 | -87.90159 | 669 ft | 0 kts | 0° |
| 2026-05-04 17:17 | 41.97434 | -87.90184 | 667 ft | 3 kts | 260° |
| 2026-05-04 17:18 | 41.97414 | -87.90206 | 667 ft | 5 kts | 200° |
| 2026-05-04 17:18 | 41.97318 | -87.90209 | 669 ft | 9 kts | 179° |
| 2026-05-04 17:19 | 41.97192 | -87.90140 | 668 ft | 12 kts | 141° |
| 2026-05-04 17:19 | 41.97040 | -87.90066 | 669 ft | 15 kts | 94° |
| 2026-05-04 17:20 | 41.97042 | -87.89775 | 670 ft | 16 kts | 91° |
| 2026-05-04 17:20 | 41.97042 | -87.89451 | 669 ft | 18 kts | 90° |
| 2026-05-04 17:20 | 41.97042 | -87.89278 | 669 ft | 19 kts | 90° |
| 2026-05-04 17:21 | 41.97043 | -87.88895 | 668 ft | 22 kts | 89° |
| 2026-05-04 17:21 | 41.97043 | -87.88674 | 669 ft | 8 kts | 94° |
| 2026-05-04 17:22 | 41.97043 | -87.88596 | 669 ft | 9 kts | 89° |
| 2026-05-04 17:22 | 41.97044 | -87.88513 | 669 ft | 9 kts | 89° |
| 2026-05-04 17:23 | 41.97042 | -87.88232 | 669 ft | 10 kts | 94° |
| 2026-05-04 17:23 | 41.97043 | -87.88133 | 670 ft | 11 kts | 88° |
| 2026-05-04 17:23 | 41.96959 | -87.88020 | 672 ft | 9 kts | 200° |
| 2026-05-04 17:24 | 41.96942 | -87.88036 | 672 ft | 0 kts | 216° |
| 2026-05-04 17:24 | 41.96613 | -87.88430 | 669 ft | 83 kts | 222° |
| 2026-05-04 17:25 | 41.96039 | -87.89107 | 669 ft | 135 kts | 221° |
| 2026-05-04 17:25 | 41.94305 | -87.91077 | 1360 ft | 180 kts | 219° |
| 2026-05-04 17:26 | 41.92430 | -87.93297 | 2765 ft | 192 kts | 222° |
| 2026-05-04 17:26 | 41.88104 | -87.94680 | 4542 ft | 268 kts | 157° |
| 2026-05-04 17:27 | 41.85867 | -87.90525 | 6323 ft | 300 kts | 102° |
| 2026-05-04 17:27 | 41.86301 | -87.84845 | 8083 ft | 313 kts | 78° |
| 2026-05-04 17:28 | 41.87209 | -87.79009 | 9820 ft | 325 kts | 78° |
| 2026-05-04 17:29 | 41.88733 | -87.69381 | 11301 ft | 372 kts | 78° |
| 2026-05-04 17:29 | 41.90408 | -87.58999 | 13597 ft | 385 kts | 78° |
| 2026-05-04 17:30 | 41.92132 | -87.48335 | 15605 ft | 396 kts | 77° |
| 2026-05-04 17:31 | 41.93312 | -87.41034 | 16927 ft | 404 kts | 77° |
| 2026-05-04 17:31 | 41.95213 | -87.29838 | 18809 ft | 414 kts | 76° |
| 2026-05-04 17:32 | 41.96284 | -87.23525 | 19797 ft | 420 kts | 76° |
| 2026-05-04 17:33 | 41.98219 | -87.11882 | 21527 ft | 430 kts | 76° |
| 2026-05-04 17:33 | 41.98869 | -87.07940 | 22096 ft | 434 kts | 76° |
| 2026-05-04 17:34 | 42.00853 | -86.95918 | 23659 ft | 443 kts | 76° |
| 2026-05-04 17:34 | 42.01521 | -86.91863 | 24138 ft | 445 kts | 76° |
| 2026-05-04 17:35 | 42.03526 | -86.79576 | 25542 ft | 451 kts | 76° |
| 2026-05-04 17:35 | 42.04868 | -86.71282 | 26440 ft | 456 kts | 76° |
| 2026-05-04 17:35 | 42.05542 | -86.67103 | 26893 ft | 458 kts | 76° |
| 2026-05-04 17:36 | 42.06219 | -86.62901 | 27335 ft | 460 kts | 76° |
| 2026-05-04 17:36 | 42.06896 | -86.58683 | 27778 ft | 463 kts | 76° |
| 2026-05-04 17:36 | 42.07577 | -86.54438 | 28214 ft | 465 kts | 75° |
| 2026-05-04 17:36 | 42.08263 | -86.50177 | 28664 ft | 467 kts | 75° |
| 2026-05-04 17:37 | 42.08952 | -86.45898 | 29110 ft | 469 kts | 75° |
| 2026-05-04 17:37 | 42.09639 | -86.41590 | 29524 ft | 471 kts | 75° |
| 2026-05-04 17:37 | 42.10327 | -86.37257 | 29907 ft | 474 kts | 75° |
| 2026-05-04 17:37 | 42.11004 | -86.32965 | 30235 ft | 476 kts | 76° |
| 2026-05-04 17:38 | 42.11695 | -86.28592 | 30555 ft | 479 kts | 75° |
| 2026-05-04 17:38 | 42.12390 | -86.24190 | 30868 ft | 481 kts | 76° |
| 2026-05-04 17:38 | 42.13085 | -86.19774 | 31178 ft | 483 kts | 76° |
| 2026-05-04 17:38 | 42.13785 | -86.15323 | 31505 ft | 486 kts | 75° |
| 2026-05-04 17:39 | 42.14408 | -86.06205 | 32245 ft | 491 kts | 89° |
| 2026-05-04 17:39 | 42.14367 | -86.01610 | 32720 ft | 490 kts | 89° |
| 2026-05-04 17:39 | 42.14334 | -85.97031 | 33167 ft | 489 kts | 89° |
| 2026-05-04 17:40 | 42.14307 | -85.92453 | 33623 ft | 488 kts | 89° |
| 2026-05-04 17:40 | 42.14282 | -85.87878 | 34002 ft | 488 kts | 89° |
| 2026-05-04 17:40 | 42.14252 | -85.83310 | 34380 ft | 488 kts | 89° |
| 2026-05-04 17:40 | 42.14219 | -85.78742 | 34753 ft | 488 kts | 89° |
| 2026-05-04 17:41 | 42.14180 | -85.74174 | 35113 ft | 487 kts | 89° |
| 2026-05-04 17:41 | 42.14136 | -85.69606 | 35466 ft | 487 kts | 89° |
| 2026-05-04 17:41 | 42.14090 | -85.65038 | 35812 ft | 487 kts | 89° |
| 2026-05-04 17:41 | 42.14046 | -85.60479 | 36137 ft | 487 kts | 89° |
| 2026-05-04 17:42 | 42.14002 | -85.55914 | 36465 ft | 487 kts | 89° |
| 2026-05-04 17:42 | 42.13955 | -85.51356 | 36786 ft | 487 kts | 89° |
| 2026-05-04 17:42 | 42.13905 | -85.46802 | 37099 ft | 487 kts | 89° |
| 2026-05-04 17:42 | 42.13853 | -85.42243 | 37408 ft | 487 kts | 89° |
| 2026-05-04 17:43 | 42.13801 | -85.37686 | 37712 ft | 487 kts | 89° |
| 2026-05-04 17:43 | 42.13747 | -85.33176 | 38009 ft | 486 kts | 90° |
| 2026-05-04 17:43 | 42.13692 | -85.28619 | 38296 ft | 487 kts | 90° |
| 2026-05-04 17:43 | 42.13633 | -85.24064 | 38529 ft | 487 kts | 90° |
| 2026-05-04 17:44 | 42.13570 | -85.19497 | 38743 ft | 486 kts | 90° |
| 2026-05-04 17:44 | 42.13504 | -85.14942 | 38940 ft | 487 kts | 90° |
| 2026-05-04 17:44 | 42.13368 | -85.05817 | 39024 ft | 487 kts | 90° |
| 2026-05-04 17:45 | 42.13219 | -84.96678 | 39025 ft | 488 kts | 90° |
| 2026-05-04 17:45 | 42.13061 | -84.87546 | 39026 ft | 488 kts | 90° |
| 2026-05-04 17:46 | 42.12889 | -84.78401 | 39039 ft | 488 kts | 90° |
| 2026-05-04 17:46 | 42.12708 | -84.69252 | 39037 ft | 488 kts | 90° |
| 2026-05-04 17:47 | 42.12527 | -84.60097 | 39044 ft | 488 kts | 90° |
| 2026-05-04 17:47 | 42.12334 | -84.51009 | 39049 ft | 488 kts | 90° |
| 2026-05-04 17:48 | 42.12865 | -84.41944 | 39042 ft | 485 kts | 79° |
| 2026-05-04 17:48 | 42.13897 | -84.32957 | 39050 ft | 486 kts | 79° |
| 2026-05-04 17:49 | 42.14900 | -84.23945 | 39055 ft | 486 kts | 79° |
| 2026-05-04 17:49 | 42.15889 | -84.14937 | 39051 ft | 486 kts | 79° |
| 2026-05-04 17:50 | 42.16883 | -84.05914 | 39053 ft | 486 kts | 79° |
| 2026-05-04 17:50 | 42.17875 | -83.96906 | 39050 ft | 486 kts | 79° |
| 2026-05-04 17:51 | 42.18856 | -83.87896 | 39057 ft | 485 kts | 79° |
| 2026-05-04 17:51 | 42.19822 | -83.78887 | 39060 ft | 485 kts | 79° |
| 2026-05-04 17:52 | 42.20781 | -83.69870 | 39057 ft | 485 kts | 79° |
| 2026-05-04 17:52 | 42.21731 | -83.60915 | 39057 ft | 485 kts | 79° |
| 2026-05-04 17:53 | 42.22684 | -83.51895 | 39077 ft | 485 kts | 79° |
| 2026-05-04 17:53 | 42.23042 | -83.42803 | 39074 ft | 486 kts | 88° |
| 2026-05-04 17:54 | 42.23113 | -83.33671 | 39073 ft | 486 kts | 88° |
| 2026-05-04 17:54 | 42.23188 | -83.24542 | 39069 ft | 487 kts | 88° |
| 2026-05-04 17:55 | 42.23257 | -83.15409 | 39071 ft | 487 kts | 88° |
| 2026-05-04 17:55 | 42.23318 | -83.06276 | 39059 ft | 487 kts | 88° |
| 2026-05-04 17:56 | 42.23358 | -82.97122 | 39058 ft | 487 kts | 88° |
| 2026-05-04 17:56 | 42.23397 | -82.87969 | 39056 ft | 487 kts | 88° |
| 2026-05-04 17:57 | 42.23435 | -82.78824 | 39056 ft | 487 kts | 88° |
| 2026-05-04 17:57 | 42.23466 | -82.69722 | 39056 ft | 488 kts | 88° |
| 2026-05-04 17:58 | 42.23487 | -82.60567 | 39058 ft | 488 kts | 88° |
| 2026-05-04 17:58 | 42.23494 | -82.51411 | 39066 ft | 488 kts | 88° |
| 2026-05-04 17:59 | 42.23496 | -82.42244 | 39070 ft | 488 kts | 88° |
| 2026-05-04 18:00 | 42.23506 | -82.28509 | 39073 ft | 488 kts | 89° |
| 2026-05-04 18:00 | 42.23492 | -82.19351 | 39072 ft | 488 kts | 89° |
| 2026-05-04 18:01 | 42.23467 | -82.10193 | 39075 ft | 488 kts | 89° |
| 2026-05-04 18:01 | 42.23441 | -82.01084 | 39075 ft | 488 kts | 89° |
| 2026-05-04 18:02 | 42.23391 | -81.87345 | 39078 ft | 488 kts | 89° |
| 2026-05-04 18:02 | 42.23345 | -81.78191 | 39083 ft | 488 kts | 89° |
| 2026-05-04 18:03 | 42.23291 | -81.69028 | 39080 ft | 488 kts | 89° |
| 2026-05-04 18:03 | 42.23231 | -81.59867 | 39094 ft | 488 kts | 89° |
| 2026-05-04 18:04 | 42.23166 | -81.50705 | 39097 ft | 488 kts | 89° |
| 2026-05-04 18:05 | 42.23058 | -81.37004 | 39096 ft | 489 kts | 89° |
| 2026-05-04 18:05 | 42.22974 | -81.27840 | 39104 ft | 488 kts | 89° |
| 2026-05-04 18:06 | 42.22836 | -81.14096 | 39099 ft | 488 kts | 89° |
| 2026-05-04 18:06 | 42.22726 | -81.04938 | 39103 ft | 488 kts | 89° |
| 2026-05-04 18:07 | 42.22609 | -80.95780 | 39099 ft | 488 kts | 89° |
| 2026-05-04 18:07 | 42.22488 | -80.86686 | 39110 ft | 488 kts | 89° |
| 2026-05-04 18:08 | 42.22369 | -80.77539 | 39101 ft | 488 kts | 89° |
| 2026-05-04 18:08 | 42.22244 | -80.68385 | 39107 ft | 488 kts | 89° |
| 2026-05-04 18:09 | 42.21959 | -80.50056 | 39109 ft | 488 kts | 89° |
| 2026-05-04 18:10 | 42.21809 | -80.40889 | 39117 ft | 489 kts | 90° |
| 2026-05-04 18:10 | 42.21645 | -80.31712 | 39111 ft | 489 kts | 90° |
| 2026-05-04 18:11 | 42.21471 | -80.22521 | 39111 ft | 489 kts | 90° |
| 2026-05-04 18:11 | 42.21297 | -80.13338 | 39110 ft | 490 kts | 90° |
| 2026-05-04 18:12 | 42.21113 | -80.04207 | 39106 ft | 490 kts | 90° |
| 2026-05-04 18:12 | 42.20918 | -79.95029 | 39110 ft | 489 kts | 90° |
| 2026-05-04 18:13 | 42.20718 | -79.85848 | 39114 ft | 489 kts | 90° |
| 2026-05-04 18:14 | 42.20412 | -79.72090 | 39119 ft | 489 kts | 90° |
| 2026-05-04 18:14 | 42.20197 | -79.62920 | 39119 ft | 489 kts | 90° |
| 2026-05-04 18:15 | 42.19779 | -79.46130 | 39124 ft | 489 kts | 90° |
| 2026-05-04 18:16 | 42.19502 | -79.35464 | 39132 ft | 489 kts | 90° |
| 2026-05-04 18:16 | 42.19258 | -79.26300 | 39135 ft | 489 kts | 90° |
| 2026-05-04 18:17 | 42.18836 | -79.14046 | 39120 ft | 490 kts | 96° |
| 2026-05-04 18:17 | 42.17151 | -79.05223 | 39155 ft | 491 kts | 108° |
| 2026-05-04 18:18 | 42.16053 | -79.00867 | 39147 ft | 491 kts | 108° |
| 2026-05-04 18:18 | 42.13869 | -78.92165 | 38814 ft | 488 kts | 108° |
| 2026-05-04 18:19 | 42.10615 | -78.79142 | 38822 ft | 491 kts | 108° |
| 2026-05-04 18:19 | 42.08424 | -78.70421 | 38832 ft | 492 kts | 108° |
| 2026-05-04 18:20 | 42.06213 | -78.61695 | 38845 ft | 494 kts | 108° |
| 2026-05-04 18:20 | 42.03988 | -78.52951 | 38845 ft | 495 kts | 108° |
| 2026-05-04 18:21 | 42.01751 | -78.44194 | 38842 ft | 495 kts | 108° |
| 2026-05-04 18:21 | 41.99522 | -78.35514 | 38849 ft | 494 kts | 108° |
| 2026-05-04 18:22 | 41.97277 | -78.26778 | 38857 ft | 494 kts | 108° |
| 2026-05-04 18:22 | 41.95029 | -78.18048 | 38864 ft | 494 kts | 108° |
| 2026-05-04 18:23 | 41.92774 | -78.09311 | 38867 ft | 494 kts | 108° |
| 2026-05-04 18:23 | 41.90511 | -78.00598 | 38868 ft | 494 kts | 108° |
| 2026-05-04 18:24 | 41.88236 | -77.91896 | 38872 ft | 494 kts | 108° |
| 2026-05-04 18:24 | 41.85957 | -77.83194 | 38868 ft | 494 kts | 108° |
| 2026-05-04 18:25 | 41.83690 | -77.74550 | 38866 ft | 494 kts | 108° |
| 2026-05-04 18:25 | 41.81400 | -77.65861 | 38861 ft | 494 kts | 109° |
| 2026-05-04 18:26 | 41.79102 | -77.57168 | 38863 ft | 495 kts | 108° |
| 2026-05-04 18:26 | 41.76796 | -77.48474 | 38863 ft | 494 kts | 108° |
| 2026-05-04 18:27 | 41.74491 | -77.39805 | 38871 ft | 494 kts | 108° |
| 2026-05-04 18:27 | 41.72178 | -77.31131 | 38868 ft | 494 kts | 109° |
| 2026-05-04 18:28 | 41.69854 | -77.22483 | 38868 ft | 494 kts | 109° |
| 2026-05-04 18:28 | 41.67530 | -77.13899 | 38860 ft | 493 kts | 109° |
| 2026-05-04 18:29 | 41.65201 | -77.05277 | 38864 ft | 493 kts | 109° |
| 2026-05-04 18:29 | 41.62870 | -76.96667 | 38865 ft | 492 kts | 109° |
| 2026-05-04 18:30 | 41.59351 | -76.83763 | 38873 ft | 492 kts | 109° |
| 2026-05-04 18:31 | 41.57007 | -76.75178 | 38881 ft | 491 kts | 109° |
| 2026-05-04 18:31 | 41.54675 | -76.66668 | 38881 ft | 491 kts | 109° |
| 2026-05-04 18:32 | 41.52299 | -76.58052 | 38884 ft | 491 kts | 109° |
| 2026-05-04 18:32 | 41.49966 | -76.49587 | 38615 ft | 489 kts | 109° |
| 2026-05-04 18:32 | 41.48789 | -76.45330 | 38360 ft | 489 kts | 109° |
| 2026-05-04 18:33 | 41.47608 | -76.41074 | 38072 ft | 489 kts | 109° |
| 2026-05-04 18:33 | 41.46426 | -76.36819 | 37799 ft | 489 kts | 109° |
| 2026-05-04 18:33 | 41.45241 | -76.32572 | 37529 ft | 489 kts | 109° |
| 2026-05-04 18:33 | 41.44054 | -76.28325 | 37257 ft | 489 kts | 109° |
| 2026-05-04 18:34 | 41.42866 | -76.24078 | 36986 ft | 489 kts | 109° |
| 2026-05-04 18:34 | 41.41677 | -76.19825 | 36721 ft | 489 kts | 109° |
| 2026-05-04 18:34 | 41.40493 | -76.15580 | 36457 ft | 489 kts | 109° |
| 2026-05-04 18:34 | 41.39302 | -76.11331 | 36203 ft | 489 kts | 109° |
| 2026-05-04 18:35 | 41.38112 | -76.07098 | 35742 ft | 488 kts | 109° |
| 2026-05-04 18:35 | 41.36920 | -76.02869 | 35160 ft | 487 kts | 108° |
| 2026-05-04 18:35 | 41.35728 | -75.98650 | 34572 ft | 487 kts | 108° |
| 2026-05-04 18:35 | 41.34538 | -75.94445 | 34129 ft | 483 kts | 108° |
| 2026-05-04 18:36 | 41.33357 | -75.90276 | 33676 ft | 479 kts | 108° |
| 2026-05-04 18:36 | 41.32186 | -75.86152 | 33005 ft | 474 kts | 108° |
| 2026-05-04 18:36 | 41.31029 | -75.82073 | 32370 ft | 469 kts | 108° |
| 2026-05-04 18:36 | 41.29885 | -75.78036 | 31751 ft | 464 kts | 108° |
| 2026-05-04 18:37 | 41.28753 | -75.74043 | 31130 ft | 460 kts | 109° |
| 2026-05-04 18:37 | 41.27622 | -75.70079 | 30518 ft | 456 kts | 109° |
| 2026-05-04 18:37 | 41.26479 | -75.66224 | 29914 ft | 452 kts | 111° |
| 2026-05-04 18:37 | 41.25251 | -75.62399 | 29213 ft | 448 kts | 112° |
| 2026-05-04 18:38 | 41.23977 | -75.58637 | 28547 ft | 444 kts | 113° |
| 2026-05-04 18:38 | 41.22690 | -75.54929 | 27924 ft | 440 kts | 114° |
| 2026-05-04 18:38 | 41.21412 | -75.51257 | 27312 ft | 436 kts | 114° |
| 2026-05-04 18:38 | 41.20155 | -75.47598 | 26819 ft | 434 kts | 113° |
| 2026-05-04 18:39 | 41.18920 | -75.43965 | 26363 ft | 431 kts | 113° |
| 2026-05-04 18:39 | 41.17699 | -75.40352 | 25967 ft | 428 kts | 113° |
| 2026-05-04 18:39 | 41.16492 | -75.36757 | 25566 ft | 424 kts | 113° |
| 2026-05-04 18:39 | 41.15298 | -75.33191 | 25153 ft | 422 kts | 113° |
| 2026-05-04 18:40 | 41.14108 | -75.29645 | 24729 ft | 419 kts | 113° |
| 2026-05-04 18:40 | 41.12923 | -75.26125 | 24303 ft | 417 kts | 113° |
| 2026-05-04 18:40 | 41.11744 | -75.22629 | 23887 ft | 414 kts | 113° |
| 2026-05-04 18:40 | 41.10568 | -75.19161 | 23477 ft | 411 kts | 113° |
| 2026-05-04 18:41 | 41.09395 | -75.15711 | 22985 ft | 409 kts | 113° |
| 2026-05-04 18:41 | 41.08232 | -75.12291 | 22497 ft | 406 kts | 114° |
| 2026-05-04 18:41 | 41.07077 | -75.08898 | 22028 ft | 402 kts | 114° |
| 2026-05-04 18:41 | 41.05931 | -75.05528 | 21551 ft | 399 kts | 114° |
| 2026-05-04 18:42 | 41.04796 | -75.02178 | 21065 ft | 396 kts | 114° |
| 2026-05-04 18:42 | 41.03686 | -74.98906 | 20601 ft | 394 kts | 114° |
| 2026-05-04 18:42 | 41.02563 | -74.95620 | 20144 ft | 391 kts | 114° |